Time;durP1;ratioP1;P1;durP2;ratioP2;P2;SDS_P1;SDS_P2;PMS_P1;PMS_P2;Temp;Humidity;BMP_temperature;BMP_pressure;BME280_temperature;BME280_humidity;BME280_pressure;Samples;Min_cycle;Max_cycle;Signal;HPM_P1;HPM_P2
2023/08/14 00:01:05;;;;;;;;;10.25;8.00;;;;;-146.67;47.38;74607.72;6308889;22;63763;-74
2023/08/14 00:03:31;;;;;;;;;11.25;9.75;;;;;-146.67;47.41;74599.72;6308460;22;61800;-74
2023/08/14 00:05:56;;;;;;;;;8.00;8.00;;;;;-146.67;47.76;74603.72;6311895;22;61813;-74
2023/08/14 00:08:22;;;;;;;;;10.75;7.50;;;;;-146.67;47.71;74599.72;6311690;22;61849;-74
2023/08/14 00:10:47;;;;;;;;;8.25;7.00;;;;;-146.67;47.70;74601.72;6335352;22;63353;-74
2023/08/14 00:13:12;;;;;;;;;7.75;7.00;;;;;-146.67;47.93;74613.72;6309422;22;61955;-74
2023/08/14 00:15:38;;;;;;;;;7.50;7.50;;;;;-146.67;47.53;74621.69;6309482;22;62044;-74
2023/08/14 00:18:04;;;;;;;;;5.50;5.50;;;;;-146.67;48.02;74625.69;6311614;22;61861;-74
2023/08/14 00:20:29;;;;;;;;;8.00;7.25;;;;;-146.67;48.16;74625.69;6309461;22;62361;-74
2023/08/14 00:22:55;;;;;;;;;8.00;7.75;;;;;-146.67;48.13;74619.69;6310261;22;61817;-74
2023/08/14 00:25:21;;;;;;;;;9.00;8.00;;;;;-146.67;48.13;74623.69;6334762;22;62027;-74
2023/08/14 00:27:47;;;;;;;;;8.75;7.00;;;;;-146.67;47.84;74629.69;6307573;22;61999;-74
2023/08/14 00:30:12;;;;;;;;;5.75;5.75;;;;;-146.67;48.02;74633.69;6308946;22;61872;-74
2023/08/14 00:32:37;;;;;;;;;13.25;9.75;;;;;-146.67;47.77;74645.66;6307178;22;61753;-74
2023/08/14 00:35:03;;;;;;;;;7.75;6.25;;;;;-146.67;47.57;74633.69;6311947;22;61958;-74
2023/08/14 00:37:43;;;;;;;;;12.00;8.25;;;;;-146.67;47.90;74633.69;6311302;22;62034;-74
2023/08/14 00:40:10;;;;;;;;;11.50;9.25;;;;;-146.67;48.45;74637.66;6308830;22;64536;-74
2023/08/14 00:42:38;;;;;;;;;11.50;7.00;;;;;-146.67;48.43;74639.66;6310929;22;61756;-74
2023/08/14 00:45:05;;;;;;;;;11.25;8.50;;;;;-146.67;48.41;74637.66;6335379;22;61739;-74
2023/08/14 00:47:31;;;;;;;;;7.00;6.75;;;;;-146.67;48.44;74639.66;6335948;22;62057;-74
2023/08/14 00:49:56;;;;;;;;;6.75;6.75;;;;;-146.67;48.42;74631.69;6334737;22;63642;-74
2023/08/14 00:52:22;;;;;;;;;6.25;6.00;;;;;-146.67;48.51;74637.66;6311917;22;61829;-74
2023/08/14 00:54:47;;;;;;;;;7.75;7.25;;;;;-146.67;48.44;74641.66;6311186;22;62177;-74
2023/08/14 00:57:12;;;;;;;;;5.00;2.25;;;;;-146.67;48.35;74629.69;6311264;22;61977;-74
2023/08/14 00:59:38;;;;;;;;;10.00;6.75;;;;;-146.67;48.41;74633.69;6310175;22;62374;-74
2023/08/14 01:02:03;;;;;;;;;11.25;8.25;;;;;-146.67;48.17;74635.66;6311003;22;61687;-74
2023/08/14 01:04:29;;;;;;;;;10.50;10.50;;;;;-146.67;48.33;74635.66;6335543;22;61953;-74
2023/08/14 01:06:54;;;;;;;;;10.25;10.00;;;;;-146.67;48.28;74641.66;6308628;22;61731;-74
2023/08/14 01:09:20;;;;;;;;;9.00;9.00;;;;;-146.67;48.12;74643.66;6310481;22;62092;-74
2023/08/14 01:12:02;;;;;;;;;8.75;8.00;;;;;-146.67;48.24;74637.66;6308580;22;61751;-74
2023/08/14 01:14:31;;;;;;;;;10.25;10.25;;;;;-146.67;48.32;74631.69;6308988;22;61774;-74
2023/08/14 01:17:00;;;;;;;;;9.00;9.00;;;;;-146.67;48.16;74635.66;6334873;22;61691;-74
2023/08/14 01:19:31;;;;;;;;;7.50;7.50;;;;;-146.67;48.17;74629.69;6310144;22;61718;-74
2023/08/14 01:22:18;;;;;;;;;9.50;7.50;;;;;-146.67;47.94;74623.69;6310794;22;61619;-74
2023/08/14 01:24:53;;;;;;;;;9.50;7.50;;;;;-146.67;47.97;74623.69;6335204;22;61804;-74
2023/08/14 01:27:19;;;;;;;;;13.75;10.00;;;;;-146.67;48.18;74625.69;6311574;22;61579;-74
2023/08/14 01:29:54;;;;;;;;;10.75;9.50;;;;;-146.67;48.04;74631.69;6307817;22;63946;-74
2023/08/14 01:32:20;;;;;;;;;8.00;8.00;;;;;-146.67;48.37;74633.69;6308531;22;61719;-74
2023/08/14 01:34:45;;;;;;;;;10.00;8.75;;;;;-146.67;48.27;74639.66;6310763;22;61671;-74
2023/08/14 01:37:25;;;;;;;;;10.00;8.00;;;;;-146.67;48.14;74635.66;6311452;22;61855;-74
2023/08/14 01:40:05;;;;;;;;;12.25;9.00;;;;;-146.67;48.23;74637.66;6309914;22;61744;-74
2023/08/14 01:42:35;;;;;;;;;9.25;8.00;;;;;-146.67;47.91;74637.66;6311258;22;61619;-74
2023/08/14 01:45:07;;;;;;;;;8.00;7.00;;;;;-146.67;48.12;74649.66;6309137;22;61979;-74
2023/08/14 01:47:34;;;;;;;;;8.25;7.00;;;;;-146.67;48.21;74655.63;6334997;22;61951;-74
2023/08/14 01:50:01;;;;;;;;;7.75;5.50;;;;;-146.67;48.54;74653.63;6333661;22;63797;-74
2023/08/14 01:52:27;;;;;;;;;6.00;6.00;;;;;-146.67;48.45;74653.63;6310639;22;61811;-74
2023/08/14 01:54:52;;;;;;;;;14.25;8.75;;;;;-146.67;48.25;74649.66;6308002;22;61845;-74
2023/08/14 01:57:17;;;;;;;;;9.00;9.00;;;;;-146.67;48.44;74643.66;6311102;22;61640;-74
2023/08/14 01:59:46;;;;;;;;;8.50;7.00;;;;;-146.67;48.16;74639.66;6307965;22;63857;-74
2023/08/14 02:02:12;;;;;;;;;8.25;6.75;;;;;-146.67;48.18;74629.69;6308429;22;61839;-74
2023/08/14 02:04:38;;;;;;;;;11.00;6.75;;;;;-146.67;48.51;74629.69;6311093;22;61698;-74
2023/08/14 02:07:05;;;;;;;;;12.00;9.75;;;;;-146.67;48.49;74635.66;6310635;22;61704;-74
2023/08/14 02:09:32;;;;;;;;;9.25;7.00;;;;;-146.67;48.35;74645.66;6333432;22;64778;-74
2023/08/14 02:11:57;;;;;;;;;9.50;5.75;;;;;-146.67;48.50;74635.66;6308366;22;61769;-74
2023/08/14 02:14:23;;;;;;;;;10.50;8.00;;;;;-146.67;48.31;74633.69;6334761;22;61821;-74
2023/08/14 02:16:48;;;;;;;;;9.50;9.50;;;;;-146.67;48.52;74637.66;6310882;22;61758;-74
2023/08/14 02:19:14;;;;;;;;;7.75;7.75;;;;;-146.67;48.38;74637.66;6308165;22;61777;-74
2023/08/14 02:21:39;;;;;;;;;12.00;7.25;;;;;-146.67;48.39;74637.66;6307395;22;61945;-74
2023/08/14 02:24:05;;;;;;;;;7.00;7.00;;;;;-146.67;48.74;74643.66;6309545;22;61690;-74
2023/08/14 02:26:31;;;;;;;;;7.75;5.50;;;;;-146.67;48.70;74649.66;6308915;22;61677;-74
2023/08/14 02:28:57;;;;;;;;;8.75;6.50;;;;;-146.67;48.61;74643.66;6307378;22;63964;-74
2023/08/14 02:31:22;;;;;;;;;14.00;9.00;;;;;-146.67;48.76;74643.66;6309477;22;61913;-74
2023/08/14 02:33:47;;;;;;;;;11.50;9.00;;;;;-146.67;49.00;74643.66;6308625;22;62559;-73
2023/08/14 02:36:13;;;;;;;;;8.00;6.00;;;;;-146.67;48.88;74645.66;6334863;22;61851;-74
2023/08/14 02:38:38;;;;;;;;;7.50;7.50;;;;;-146.67;48.93;74643.66;6309734;22;61817;-74
2023/08/14 02:41:03;;;;;;;;;10.25;10.25;;;;;-146.67;48.90;74635.66;6310530;22;61726;-74
2023/08/14 02:43:30;;;;;;;;;9.50;8.00;;;;;-146.67;49.18;74639.66;6310502;22;61824;-73
2023/08/14 02:45:55;;;;;;;;;8.50;6.50;;;;;-146.67;49.14;74639.66;6308744;22;61842;-74
2023/08/14 02:48:23;;;;;;;;;14.50;7.25;;;;;-146.67;48.94;74635.66;6306976;22;63860;-74
2023/08/14 02:50:48;;;;;;;;;7.25;7.25;;;;;-146.67;49.16;74641.66;6307493;22;61756;-74
2023/08/14 02:53:14;;;;;;;;;8.50;5.50;;;;;-146.67;48.79;74637.66;6309553;22;61683;-74
2023/08/14 02:55:39;;;;;;;;;6.75;6.00;;;;;-146.67;48.77;74637.66;6310598;22;61913;-73
2023/08/14 02:58:05;;;;;;;;;7.00;7.00;;;;;-146.67;48.96;74635.66;6309763;22;61674;-74
2023/08/14 03:00:30;;;;;;;;;12.75;5.00;;;;;-146.67;49.00;74647.66;6309684;22;61640;-74
2023/08/14 03:02:55;;;;;;;;;9.50;4.75;;;;;-146.67;49.21;74649.66;6311540;22;61957;-75
2023/08/14 03:05:21;;;;;;;;;8.50;5.25;;;;;-146.67;49.10;74645.66;6311907;22;61719;-74
2023/08/14 03:07:46;;;;;;;;;12.25;7.50;;;;;-146.67;49.18;74653.63;6310793;22;61843;-74
2023/08/14 03:10:12;;;;;;;;;7.25;5.75;;;;;-146.67;49.24;74657.63;6309489;22;61773;-74
2023/08/14 03:12:37;;;;;;;;;6.50;6.00;;;;;-146.67;49.41;74663.63;6312010;22;61777;-74
2023/08/14 03:15:04;;;;;;;;;7.00;6.00;;;;;-146.67;49.40;74669.63;6310009;22;61886;-74
2023/08/14 03:17:30;;;;;;;;;8.75;8.00;;;;;-146.67;49.27;74665.63;6307900;22;63577;-73
2023/08/14 03:19:55;;;;;;;;;9.75;6.00;;;;;-146.67;49.39;74667.63;6335208;22;61884;-74
2023/08/14 03:22:21;;;;;;;;;7.00;6.75;;;;;-146.67;49.61;74675.59;6308628;22;61814;-74
2023/08/14 03:24:46;;;;;;;;;5.75;4.50;;;;;-146.67;49.55;74677.59;6312102;22;61745;-74
2023/08/14 03:27:11;;;;;;;;;12.25;7.50;;;;;-146.67;49.60;74675.59;6310954;22;62838;-74
2023/08/14 03:29:37;;;;;;;;;5.50;4.50;;;;;-146.67;49.60;74671.59;6309462;22;61920;-74
2023/08/14 03:32:02;;;;;;;;;6.75;5.75;;;;;-146.67;49.74;74671.59;6311637;22;61707;-74
2023/08/14 03:34:28;;;;;;;;;10.75;8.00;;;;;-146.67;49.41;74677.59;6309608;22;61775;-74
2023/08/14 03:36:53;;;;;;;;;7.25;6.50;;;;;-146.67;49.71;74695.56;6310757;22;61705;-74
2023/08/14 03:39:18;;;;;;;;;8.00;6.00;;;;;-146.67;49.68;74685.59;6311883;22;61838;-75
2023/08/14 03:41:44;;;;;;;;;7.25;5.50;;;;;-146.67;49.75;74681.59;6312049;22;62101;-74
2023/08/14 03:44:10;;;;;;;;;6.50;5.50;;;;;-146.67;49.52;74687.56;6309951;22;61657;-74
2023/08/14 03:46:35;;;;;;;;;7.25;5.75;;;;;-146.67;49.68;74689.56;6308729;22;64845;-74
2023/08/14 03:49:00;;;;;;;;;7.00;7.00;;;;;-146.67;49.82;74689.56;6311411;22;61768;-74
2023/08/14 03:51:26;;;;;;;;;10.00;7.00;;;;;-146.67;49.77;74681.59;6310722;22;61747;-74
2023/08/14 03:53:51;;;;;;;;;6.50;6.25;;;;;-146.67;49.90;74689.56;6312150;22;61580;-74
2023/08/14 03:56:16;;;;;;;;;10.00;6.00;;;;;-146.67;49.85;74693.56;6309310;22;63491;-74
2023/08/14 03:58:42;;;;;;;;;7.25;5.00;;;;;-146.67;50.02;74701.56;6309742;22;62162;-74
2023/08/14 04:01:07;;;;;;;;;3.25;3.00;;;;;-146.67;49.93;74695.56;6311965;22;61755;-74
2023/08/14 04:03:33;;;;;;;;;10.00;4.00;;;;;-146.67;49.96;74697.56;6310792;22;61743;-74
2023/08/14 04:05:58;;;;;;;;;7.75;4.25;;;;;-146.67;49.91;74703.56;6308146;22;64611;-74
2023/08/14 04:08:23;;;;;;;;;4.25;4.25;;;;;-146.67;49.67;74705.53;6311527;22;61762;-74
2023/08/14 04:10:59;;;;;;;;;6.00;3.50;;;;;-146.67;49.43;74703.56;6311106;22;61726;-74
2023/08/14 04:13:27;;;;;;;;;2.50;2.00;;;;;-146.67;48.79;74697.56;6310594;22;61765;-74
2023/08/14 04:16:00;;;;;;;;;4.50;4.00;;;;;-146.67;48.70;74697.56;6309016;22;63865;-74
2023/08/14 04:18:27;;;;;;;;;6.00;2.25;;;;;-146.67;49.17;74707.53;6310914;22;61756;-74
2023/08/14 04:20:52;;;;;;;;;2.00;2.00;;;;;-146.67;48.98;74697.56;6309614;22;61779;-74
2023/08/14 04:23:17;;;;;;;;;3.75;2.00;;;;;-146.67;49.02;74695.56;6309225;22;61763;-74
2023/08/14 04:25:43;;;;;;;;;4.00;3.25;;;;;-146.67;49.21;74707.53;6310340;22;62218;-74
2023/08/14 04:28:08;;;;;;;;;1.50;0.00;;;;;-146.67;49.12;74715.53;6311468;22;61860;-74
2023/08/14 04:30:34;;;;;;;;;3.75;2.75;;;;;-146.67;49.42;74721.53;6311469;22;61639;-74
2023/08/14 04:32:59;;;;;;;;;2.00;2.00;;;;;-146.67;49.24;74723.50;6335312;22;61720;-74
2023/08/14 04:35:24;;;;;;;;;3.00;1.75;;;;;-146.67;49.21;74721.53;6310481;22;61860;-74
2023/08/14 04:37:50;;;;;;;;;5.00;4.00;;;;;-146.67;49.54;74719.53;6311286;22;61722;-74
2023/08/14 04:40:15;;;;;;;;;3.25;2.00;;;;;-146.67;49.67;74725.50;6311632;22;62210;-74
2023/08/14 04:42:41;;;;;;;;;7.00;4.00;;;;;-146.67;49.83;74727.50;6311879;22;61686;-74
2023/08/14 04:45:06;;;;;;;;;5.50;2.50;;;;;-146.67;49.81;74723.50;6311143;22;61676;-74
2023/08/14 04:47:32;;;;;;;;;5.75;3.25;;;;;-146.67;49.54;74729.50;6311204;22;61841;-74
2023/08/14 04:49:58;;;;;;;;;2.50;2.25;;;;;-146.67;49.55;74741.50;6310483;22;61667;-74
2023/08/14 04:52:23;;;;;;;;;3.75;1.50;;;;;-146.67;49.45;74743.47;6336199;22;61641;-74
2023/08/14 04:54:49;;;;;;;;;3.50;3.00;;;;;-146.67;49.60;74741.50;6308301;22;63661;-77
2023/08/14 04:57:15;;;;;;;;;3.75;3.75;;;;;-146.67;49.49;74739.50;6336149;22;61826;-77
2023/08/14 04:59:41;;;;;;;;;3.25;2.25;;;;;-146.67;49.38;74739.50;6311281;22;61679;-76
2023/08/14 05:02:06;;;;;;;;;2.75;2.00;;;;;-146.67;49.74;74743.47;6309453;22;62073;-74
2023/08/14 05:04:32;;;;;;;;;3.25;3.00;;;;;-146.67;49.24;74737.50;6334984;22;63638;-73
2023/08/14 05:06:57;;;;;;;;;2.00;2.00;;;;;-146.67;49.37;74735.50;6311137;22;61666;-74
2023/08/14 05:09:22;;;;;;;;;2.50;2.50;;;;;-146.67;49.35;74737.50;6336151;22;62094;-74
2023/08/14 05:11:48;;;;;;;;;2.00;2.00;;;;;-146.67;49.31;74741.50;6311256;22;61652;-74
2023/08/14 05:14:13;;;;;;;;;3.00;1.00;;;;;-146.67;49.19;74741.50;6310938;22;63131;-74
2023/08/14 05:16:39;;;;;;;;;3.50;1.00;;;;;-146.67;49.29;74747.47;6311738;22;61861;-74
2023/08/14 05:19:04;;;;;;;;;2.00;1.00;;;;;-146.67;49.16;74747.47;6310467;22;61888;-74
2023/08/14 05:21:29;;;;;;;;;3.00;0.75;;;;;-146.67;49.13;74747.47;6308995;22;62166;-74
2023/08/14 05:23:55;;;;;;;;;7.50;3.25;;;;;-146.67;49.18;74745.47;6334799;22;64691;-73
2023/08/14 05:26:20;;;;;;;;;1.00;1.00;;;;;-146.67;49.27;74747.47;6311172;22;61775;-74
2023/08/14 05:28:45;;;;;;;;;4.25;0.00;;;;;-146.67;49.16;74745.47;6308917;22;61877;-74
2023/08/14 05:31:11;;;;;;;;;3.50;2.00;;;;;-146.67;49.12;74745.47;6308341;22;61725;-75
2023/08/14 05:33:36;;;;;;;;;2.00;2.00;;;;;-146.67;49.29;74743.47;6307066;22;63448;-74
2023/08/14 05:36:02;;;;;;;;;3.25;3.00;;;;;-146.67;49.71;74747.47;6310233;22;61619;-74
2023/08/14 05:38:27;;;;;;;;;5.50;3.75;;;;;-146.67;49.77;74745.47;6308671;22;61861;-74
2023/08/14 05:40:52;;;;;;;;;6.25;4.00;;;;;-146.67;49.80;74749.47;6311140;22;61705;-74
2023/08/14 05:43:18;;;;;;;;;3.50;3.25;;;;;-146.67;49.71;74741.50;6310510;22;62966;-74
2023/08/14 05:45:45;;;;;;;;;3.75;2.75;;;;;-146.67;49.74;74739.50;6310966;22;61734;-74
2023/08/14 05:48:12;;;;;;;;;2.75;1.00;;;;;-146.67;49.87;74737.50;6306976;22;61804;-74
2023/08/14 05:50:39;;;;;;;;;0.25;0.00;;;;;-146.67;49.85;74735.50;6308719;22;61761;-73
2023/08/14 05:53:06;;;;;;;;;6.25;2.75;;;;;-146.67;50.08;74725.50;6309680;22;61666;-73
2023/08/14 05:55:39;;;;;;;;;4.00;3.00;;;;;-146.67;49.76;74721.53;6310466;22;61646;-74
2023/08/14 05:58:06;;;;;;;;;3.75;3.50;;;;;-146.67;49.80;74719.53;6308528;22;61689;-77
2023/08/14 06:00:32;;;;;;;;;3.00;3.00;;;;;-146.67;49.83;74711.53;6308778;22;61668;-74
2023/08/14 06:02:57;;;;;;;;;2.25;2.25;;;;;-146.67;49.79;74707.53;6307766;22;64057;-76
2023/08/14 06:05:23;;;;;;;;;5.25;3.00;;;;;-146.67;49.77;74697.56;6310800;22;61706;-76
2023/08/14 06:07:50;;;;;;;;;6.00;4.00;;;;;-146.67;49.70;74685.59;6311051;22;61749;-75
2023/08/14 06:10:16;;;;;;;;;6.00;4.00;;;;;-146.67;49.54;74667.63;6310276;22;61608;-76
2023/08/14 06:12:42;;;;;;;;;5.25;3.25;;;;;-146.67;49.58;74647.66;6309554;22;61818;-76
2023/08/14 06:15:08;;;;;;;;;5.25;3.00;;;;;-146.67;49.29;74633.69;6307955;22;61775;-78
2023/08/14 06:17:33;;;;;;;;;4.00;4.00;;;;;-146.67;49.08;74609.72;6307754;22;61901;-76
2023/08/14 06:19:59;;;;;;;;;5.00;4.25;;;;;-146.67;49.32;74605.72;6310530;22;61700;-76
2023/08/14 06:22:25;;;;;;;;;8.50;3.75;;;;;-146.67;48.56;74585.75;6307324;22;64979;-73
2023/08/14 06:24:51;;;;;;;;;5.25;3.50;;;;;-146.67;48.38;74551.81;6310658;22;61908;-74
2023/08/14 06:27:16;;;;;;;;;4.50;3.50;;;;;-146.67;47.73;74501.91;6310500;22;61751;-74
2023/08/14 06:29:42;;;;;;;;;5.00;3.25;;;;;-146.67;47.43;74450.00;6334574;22;61725;-73
2023/08/14 06:32:07;;;;;;;;;6.75;3.00;;;;;-146.67;46.76;74410.06;6309627;22;62846;-74
2023/08/14 06:34:32;;;;;;;;;4.00;4.00;;;;;-146.67;46.12;74408.06;6310186;22;61832;-74
2023/08/14 06:36:58;;;;;;;;;2.75;2.75;;;;;-146.67;46.20;74358.16;6311523;22;61695;-74
2023/08/14 06:39:24;;;;;;;;;6.00;4.75;;;;;-146.67;45.63;74332.22;6336231;22;61687;-75
2023/08/14 06:41:49;;;;;;;;;3.50;3.00;;;;;-146.67;44.87;74264.34;6310659;22;62863;-74
2023/08/14 06:44:16;;;;;;;;;4.00;3.00;;;;;-146.67;44.45;74216.44;6334203;22;61798;-75
2023/08/14 06:46:42;;;;;;;;;2.00;1.00;;;;;-146.67;43.13;74166.50;6310874;22;61804;-74
2023/08/14 06:49:10;;;;;;;;;2.67;1.00;;;;;-146.67;42.56;74114.63;6306688;22;61804;-74
2023/08/14 06:51:35;;;;;;;;;1.00;1.00;;;;;-146.67;41.99;74122.59;6307225;22;61854;-75
2023/08/14 06:54:18;;;;;;;;;3.33;1.00;;;;;-146.67;41.81;74110.63;6310882;22;61608;-74
2023/08/14 06:56:44;;;;;;;;;1.67;1.67;;;;;-146.67;40.96;74052.72;6311595;22;61885;-74
2023/08/14 06:59:10;;;;;;;;;1.33;1.00;;;;;-146.67;41.26;74032.75;6335579;22;61674;-75
2023/08/14 07:01:35;;;;;;;;;3.67;3.00;;;;;-146.67;41.07;74030.78;6310343;22;61647;-74
2023/08/14 07:04:01;;;;;;;;;1.67;1.67;;;;;-146.67;40.95;74014.81;6311343;22;61659;-74
2023/08/14 07:06:26;;;;;;;;;2.00;0.67;;;;;-146.67;40.93;74016.78;6309409;22;61743;-75
2023/08/14 07:08:52;;;;;;;;;1.67;1.67;;;;;-146.67;40.75;74018.78;6311391;22;61731;-75
2023/08/14 07:11:17;;;;;;;;;1.00;0.67;;;;;-146.67;40.28;74036.75;6334334;22;63991;-75
2023/08/14 07:13:43;;;;;;;;;1.67;1.67;;;;;-146.67;40.95;74050.72;6310744;22;61710;-75
2023/08/14 07:16:09;;;;;;;;;1.00;1.00;;;;;-146.67;40.91;74060.72;6309157;22;61778;-78
2023/08/14 07:18:34;;;;;;;;;0.00;0.00;;;;;-146.67;40.58;74076.69;6308602;22;62042;-74
2023/08/14 07:21:00;;;;;;;;;3.33;0.33;;;;;-146.67;41.01;74108.63;6309594;22;62970;-74
2023/08/14 07:23:25;;;;;;;;;0.33;0.33;;;;;-146.67;40.95;74142.56;6311142;22;61694;-74
2023/08/14 07:25:50;;;;;;;;;1.33;1.33;;;;;-146.67;41.76;74170.50;6311322;22;61729;-74
2023/08/14 07:28:17;;;;;;;;;1.67;1.00;;;;;-146.67;41.97;74182.50;6308831;22;61722;-74
2023/08/14 07:30:42;;;;;;;;;1.33;0.67;;;;;-146.67;42.09;74180.50;6310033;22;62346;-74
2023/08/14 07:33:10;;;;;;;;;1.33;0.67;;;;;-146.67;41.74;74170.50;6310133;22;61772;-74
2023/08/14 07:35:36;;;;;;;;;1.33;1.33;;;;;-146.67;41.20;74166.50;6310550;22;61792;-74
2023/08/14 07:38:02;;;;;;;;;3.33;1.00;;;;;-146.67;41.40;74164.53;6308434;22;61915;-74
2023/08/14 07:40:27;;;;;;;;;1.00;1.00;;;;;-146.67;41.37;74164.53;6309969;22;62709;-74
2023/08/14 07:42:52;;;;;;;;;0.67;0.67;;;;;-146.67;41.28;74154.53;6311601;22;62093;-74
2023/08/14 07:45:18;;;;;;;;;0.00;0.00;;;;;-146.67;41.24;74150.53;6311915;22;61835;-76
2023/08/14 07:47:43;;;;;;;;;1.00;1.00;;;;;-146.67;41.20;74146.56;6334995;22;61730;-75
2023/08/14 07:50:10;;;;;;;;;1.33;1.00;;;;;-146.67;41.26;74144.56;6310131;22;62026;-75
2023/08/14 07:52:35;;;;;;;;;1.00;1.00;;;;;-146.67;40.75;74144.56;6309425;22;61711;-76
2023/08/14 07:55:02;;;;;;;;;0.67;0.67;;;;;-146.67;40.90;74142.56;6335112;22;61782;-75
2023/08/14 07:57:27;;;;;;;;;1.00;1.00;;;;;-146.67;41.14;74142.56;6310387;22;61912;-75
2023/08/14 07:59:53;;;;;;;;;1.00;1.00;;;;;-146.67;41.15;74134.56;6334299;22;62990;-75
2023/08/14 08:02:19;;;;;;;;;1.00;1.00;;;;;-146.67;41.09;74132.56;6310635;22;62017;-76
2023/08/14 08:04:44;;;;;;;;;3.00;1.00;;;;;-146.67;41.06;74134.56;6308512;22;62081;-76
2023/08/14 08:07:09;;;;;;;;;4.33;1.33;;;;;-146.67;41.02;74122.59;6311258;22;61745;-75
2023/08/14 08:09:35;;;;;;;;;1.67;0.67;;;;;-146.67;40.98;74118.59;6309983;22;61888;-75
2023/08/14 08:12:00;;;;;;;;;5.67;0.67;;;;;-146.67;40.89;74112.63;6310625;22;61926;-74
2023/08/14 08:14:26;;;;;;;;;1.67;1.67;;;;;-146.67;40.78;74106.63;6310895;22;61865;-74
2023/08/14 08:16:52;;;;;;;;;5.00;1.00;;;;;-146.67;40.58;74100.63;6310899;22;61712;-75
2023/08/14 08:19:17;;;;;;;;;1.00;1.00;;;;;-146.67;40.77;74088.66;6308974;22;63053;-75
2023/08/14 08:21:43;;;;;;;;;2.00;0.67;;;;;-146.67;40.38;74072.69;6310062;22;62045;-75
2023/08/14 08:24:08;;;;;;;;;1.67;0.67;;;;;-146.67;40.14;74054.72;6335089;22;61893;-75
2023/08/14 08:26:35;;;;;;;;;2.33;0.67;;;;;-146.67;39.70;74034.75;6311073;22;61793;-75
2023/08/14 08:29:01;;;;;;;;;2.00;1.00;;;;;-146.67;40.25;74016.78;6308340;22;64064;-75
2023/08/14 08:31:26;;;;;;;;;1.00;1.00;;;;;-146.67;40.07;74008.81;6310652;22;62132;-74
2023/08/14 08:33:52;;;;;;;;;3.00;1.00;;;;;-146.67;39.54;73990.84;6309607;22;61855;-76
2023/08/14 08:36:17;;;;;;;;;2.00;0.67;;;;;-146.67;39.24;73964.91;6310985;22;61874;-74
2023/08/14 08:38:46;;;;;;;;;1.33;0.67;;;;;-146.67;39.30;73948.94;6309528;22;62046;-75
2023/08/14 08:41:16;;;;;;;;;2.00;1.00;;;;;-146.67;39.31;73948.94;6311014;22;61820;-79
2023/08/14 08:43:42;;;;;;;;;0.67;0.67;;;;;-146.67;39.83;73944.94;6334673;22;61670;-74
2023/08/14 08:46:09;;;;;;;;;0.00;0.00;;;;;-146.67;39.45;73940.94;6310498;22;61726;-75
2023/08/14 08:48:37;;;;;;;;;1.67;0.33;;;;;-146.67;39.71;73950.94;6309449;22;61925;-74
2023/08/14 08:51:04;;;;;;;;;1.00;0.00;;;;;-146.67;39.39;73960.91;6310260;22;61896;-74
2023/08/14 08:53:29;;;;;;;;;2.00;1.33;;;;;-146.67;39.29;73962.91;6308654;22;61854;-75
2023/08/14 08:55:55;;;;;;;;;4.33;2.00;;;;;-146.67;39.52;73964.91;6307924;22;61728;-74
2023/08/14 08:58:21;;;;;;;;;0.00;0.00;;;;;-146.67;39.72;73972.88;6309610;22;61853;-74
2023/08/14 09:00:47;;;;;;;;;2.67;0.67;;;;;-146.67;39.80;73982.88;6310515;22;61750;-74
2023/08/14 09:03:12;;;;;;;;;2.00;1.00;;;;;-146.67;39.92;73982.88;6310435;22;61832;-74
2023/08/14 09:05:39;;;;;;;;;1.00;1.00;;;;;-146.67;40.02;73980.88;6335526;22;61710;-74
2023/08/14 09:08:05;;;;;;;;;1.00;1.00;;;;;-146.67;40.11;73982.88;6309327;22;62050;-74
2023/08/14 09:10:30;;;;;;;;;0.00;0.00;;;;;-146.67;40.00;73984.84;6310296;22;61698;-74
2023/08/14 09:12:56;;;;;;;;;2.67;1.33;;;;;-146.67;40.47;73980.88;6310862;22;61759;-74
2023/08/14 09:15:25;;;;;;;;;3.33;2.33;;;;;-146.67;40.37;73982.88;6311363;22;61833;-74
2023/08/14 09:17:52;;;;;;;;;0.67;0.67;;;;;-146.67;40.42;73972.88;6309710;22;61887;-74
2023/08/14 09:20:21;;;;;;;;;1.00;1.00;;;;;-146.67;40.47;73968.88;6310131;22;61758;-73
2023/08/14 09:22:47;;;;;;;;;2.67;1.00;;;;;-146.67;40.75;73952.91;6308329;22;61850;-74
2023/08/14 09:25:14;;;;;;;;;0.00;0.00;;;;;-146.67;40.82;73958.91;6310582;22;61586;-75
2023/08/14 09:27:42;;;;;;;;;3.00;1.00;;;;;-146.67;41.06;73956.91;6309917;22;62618;-75
2023/08/14 09:30:10;;;;;;;;;2.00;1.00;;;;;-146.67;40.78;73948.94;6310132;22;61647;-75
2023/08/14 09:32:36;;;;;;;;;0.00;0.00;;;;;-146.67;40.92;73954.91;6310642;22;61952;-75
2023/08/14 09:35:03;;;;;;;;;2.67;1.67;;;;;-146.67;40.95;73956.91;6308519;22;61695;-74
2023/08/14 09:37:28;;;;;;;;;2.00;0.67;;;;;-146.67;41.00;73946.94;6309869;22;61912;-73
2023/08/14 09:40:17;;;;;;;;;0.67;0.67;;;;;-146.67;40.97;73954.91;6309364;22;61822;-73
2023/08/14 09:42:47;;;;;;;;;0.00;0.00;;;;;-146.67;41.29;73958.91;6335328;22;62021;-73
2023/08/14 09:45:14;;;;;;;;;2.67;1.33;;;;;-146.67;41.35;73950.94;6310872;22;61644;-73
2023/08/14 09:47:44;;;;;;;;;0.33;0.33;;;;;-146.67;41.31;73950.94;6309187;22;61718;-73
2023/08/14 09:50:13;;;;;;;;;1.67;0.00;;;;;-146.67;41.42;73946.94;6308822;22;61816;-74
2023/08/14 09:52:45;;;;;;;;;4.00;1.67;;;;;-146.67;41.00;73930.97;6310545;22;61781;-74
2023/08/14 09:55:11;;;;;;;;;2.00;0.67;;;;;-146.67;40.91;73920.97;6310507;22;61581;-74
2023/08/14 09:57:37;;;;;;;;;3.00;1.67;;;;;-146.67;41.15;73911.00;6309677;22;62105;-77
2023/08/14 10:00:04;;;;;;;;;4.00;1.33;;;;;-146.67;41.06;73897.03;6310094;22;61655;-76
2023/08/14 10:02:32;;;;;;;;;1.00;0.00;;;;;-146.67;40.89;73887.03;6310446;22;61805;-76
2023/08/14 10:05:00;;;;;;;;;3.00;2.00;;;;;-146.67;41.17;73879.06;6310633;22;61628;-74
2023/08/14 10:07:26;;;;;;;;;1.33;0.67;;;;;-146.67;41.14;73865.09;6308905;22;62954;-74
2023/08/14 10:09:55;;;;;;;;;1.67;1.67;;;;;-146.67;40.72;73859.09;6310035;22;61808;-74
2023/08/14 10:12:23;;;;;;;;;3.00;2.00;;;;;-146.67;40.81;73845.13;6309282;22;61879;-74
2023/08/14 10:15:10;;;;;;;;;1.00;1.00;;;;;-146.67;40.89;73835.16;6312121;22;62013;-74
2023/08/14 10:17:50;;;;;;;;;0.33;0.33;;;;;-146.67;40.58;73833.16;6334423;22;63582;-74
2023/08/14 10:20:17;;;;;;;;;1.00;1.00;;;;;-146.67;41.09;73815.19;6335484;22;61965;-74
2023/08/14 10:22:45;;;;;;;;;2.33;1.00;;;;;-146.67;40.91;73805.22;6310780;22;61830;-74
2023/08/14 10:25:12;;;;;;;;;1.67;1.67;;;;;-146.67;40.53;73789.25;6310185;22;62112;-74
2023/08/14 10:27:39;;;;;;;;;3.00;1.67;;;;;-146.67;40.28;73773.28;6311094;22;62212;-74
2023/08/14 10:30:05;;;;;;;;;1.33;1.33;;;;;-146.67;39.94;73737.34;6308940;22;61890;-77
2023/08/14 10:32:31;;;;;;;;;4.33;0.67;;;;;-146.67;39.55;73691.44;6310235;22;61896;-76
2023/08/14 10:34:57;;;;;;;;;4.33;3.00;;;;;-146.67;39.86;73671.47;6311763;22;61687;-75
2023/08/14 10:37:40;;;;;;;;;3.00;0.67;;;;;-146.67;39.38;73651.50;6310170;22;61785;-76
2023/08/14 10:40:20;;;;;;;;;1.33;1.00;;;;;-146.67;39.07;73643.53;6308801;22;61862;-76
2023/08/14 10:42:56;;;;;;;;;1.00;0.67;;;;;-146.67;39.32;73619.56;6309930;22;61672;-76
2023/08/14 10:45:26;;;;;;;;;1.00;1.00;;;;;-146.67;39.07;73577.66;6310563;22;61936;-75
2023/08/14 10:47:57;;;;;;;;;1.00;1.00;;;;;-146.67;38.32;73529.75;6307468;22;63524;-75
2023/08/14 10:50:24;;;;;;;;;3.00;2.00;;;;;-146.67;37.92;73503.81;6307652;22;61616;-76
2023/08/14 10:52:54;;;;;;;;;1.00;1.00;;;;;-146.67;37.72;73473.88;6310741;22;61664;-75
2023/08/14 10:55:25;;;;;;;;;2.00;1.33;;;;;-146.67;37.69;73439.94;6310189;22;61651;-76
2023/08/14 10:57:53;;;;;;;;;1.00;0.67;;;;;-146.67;36.99;73410.00;6308135;22;63691;-75
2023/08/14 11:00:22;;;;;;;;;3.67;1.00;;;;;-146.67;37.38;73382.06;6335082;22;61639;-78
2023/08/14 11:03:02;;;;;;;;;1.00;0.00;;;;;-146.67;36.67;73336.16;6335064;22;61708;-77
2023/08/14 11:05:38;;;;;;;;;2.00;1.00;;;;;-146.67;36.37;73300.22;6310111;22;62047;-77
2023/08/14 11:08:06;;;;;;;;;2.67;1.00;;;;;-146.67;36.29;73272.28;6310379;22;61720;-77
2023/08/14 11:10:33;;;;;;;;;3.67;2.00;;;;;-146.67;35.64;73220.38;6311908;22;61729;-78
2023/08/14 11:13:00;;;;;;;;;2.00;2.00;;;;;-146.67;35.69;73194.44;6335288;22;62052;-78
2023/08/14 11:15:25;;;;;;;;;3.33;1.67;;;;;-146.67;35.55;73174.50;6335525;22;61702;-76